Time;durP1;ratioP1;P1;durP2;ratioP2;P2;SDS_P1;SDS_P2;PMS_P1;PMS_P2;Temp;Humidity;BMP_temperature;BMP_pressure;BME280_temperature;BME280_humidity;BME280_pressure;Samples;Min_cycle;Max_cycle;Signal;HPM_P1;HPM_P2
2022/01/31 00:01:01;;;;;;;13.43;3.33;;;2.90;99.90;;;;;;5112951;28;20032;-52
2022/01/31 00:03:29;;;;;;;20.70;4.18;;;2.90;99.90;;;;;;5113015;28;20035;-50
2022/01/31 00:05:55;;;;;;;21.63;3.20;;;2.90;99.90;;;;;;5112630;28;20036;-49
2022/01/31 00:08:23;;;;;;;19.75;3.10;;;2.90;99.90;;;;;;5112740;28;20046;-53
2022/01/31 00:10:50;;;;;;;25.52;4.72;;;2.90;99.90;;;;;;5095463;28;20072;-51
2022/01/31 00:13:58;;;;;;;25.17;3.33;;;2.90;99.90;;;;;;5094721;28;20381;-53
2022/01/31 00:16:13;;;;;;;21.25;2.80;;;2.90;99.90;;;;;;5108163;28;20052;-49
2022/01/31 00:18:40;;;;;;;22.00;4.13;;;2.90;99.90;;;;;;5112502;28;20039;-51
2022/01/31 00:21:06;;;;;;;23.80;4.72;;;2.90;99.90;;;;;;5094130;28;20122;-51
2022/01/31 00:23:32;;;;;;;21.88;4.18;;;4.00;99.90;;;;;;5112797;28;20374;-50
2022/01/31 00:25:57;;;;;;;17.13;4.00;;;3.00;99.90;;;;;;5112570;28;20046;-52
2022/01/31 00:28:23;;;;;;;26.00;5.70;;;3.00;99.90;;;;;;5112123;28;20039;-50
2022/01/31 00:30:49;;;;;;;24.15;3.92;;;3.00;99.90;;;;;;5094160;28;20044;-51
2022/01/31 00:33:15;;;;;;;18.98;3.53;;;3.00;99.90;;;;;;5111943;28;20138;-51
2022/01/31 00:35:40;;;;;;;21.35;4.93;;;3.00;99.90;;;;;;5094245;28;20073;-51
2022/01/31 00:38:06;;;;;;;25.80;5.45;;;3.00;99.90;;;;;;5093024;28;20131;-50
2022/01/31 00:40:34;;;;;;;19.85;4.90;;;3.00;99.90;;;;;;5112074;28;20056;-52
2022/01/31 00:42:59;;;;;;;33.28;6.03;;;3.00;99.90;;;;;;5112153;28;20059;-50
2022/01/31 00:45:28;;;;;;;23.33;5.50;;;3.00;99.90;;;;;;5112141;28;20043;-52
2022/01/31 00:48:02;;;;;;;22.33;5.00;;;3.00;99.90;;;;;;5111982;28;20077;-51
2022/01/31 00:50:39;;;;;;;21.27;6.07;;;4.20;99.90;;;;;;5112009;28;20499;-52
2022/01/31 00:53:04;;;;;;;21.70;5.00;;;4.50;99.90;;;;;;5112053;28;20043;-50
2022/01/31 00:55:30;;;;;;;25.38;5.60;;;3.10;99.90;;;;;;5112114;28;20043;-47
2022/01/31 00:57:56;;;;;;;17.23;5.03;;;4.20;99.90;;;;;;5112046;28;20044;-51
2022/01/31 01:00:21;;;;;;;26.27;7.10;;;3.10;99.90;;;;;;5111902;28;20050;-51
2022/01/31 01:02:47;;;;;;;24.35;5.57;;;3.10;99.90;;;;;;5112064;28;20043;-51
2022/01/31 01:05:14;;;;;;;22.25;4.93;;;3.10;99.90;;;;;;5111505;28;20039;-52
2022/01/31 01:07:45;;;;;;;27.23;5.90;;;3.10;99.90;;;;;;5111823;28;20027;-50
2022/01/31 01:10:12;;;;;;;22.92;6.07;;;3.20;99.90;;;;;;5093796;28;20086;-52
2022/01/31 01:12:38;;;;;;;19.00;5.25;;;3.20;99.90;;;;;;5111940;28;20038;-51
2022/01/31 01:15:05;;;;;;;25.77;7.35;;;3.20;99.90;;;;;;5112296;28;20046;-50
2022/01/31 01:17:31;;;;;;;24.75;7.38;;;3.20;99.90;;;;;;5111095;28;20042;-51
2022/01/31 01:19:56;;;;;;;20.70;5.90;;;3.20;99.90;;;;;;5111864;28;20396;-51
2022/01/31 01:22:22;;;;;;;27.88;6.28;;;3.40;99.90;;;;;;5093147;28;20050;-51
2022/01/31 01:24:48;;;;;;;19.55;6.53;;;3.10;99.90;;;;;;5111685;28;20096;-50
2022/01/31 01:27:18;;;;;;;27.65;7.43;;;3.10;99.90;;;;;;5111203;28;20039;-51
2022/01/31 01:29:45;;;;;;;25.42;8.15;;;3.10;99.90;;;;;;5111221;28;20058;-50
2022/01/31 01:32:11;;;;;;;23.13;6.72;;;3.10;99.90;;;;;;5111302;28;20393;-51
2022/01/31 01:34:40;;;;;;;20.88;7.00;;;3.00;99.90;;;;;;5110716;28;20052;-51
2022/01/31 01:37:06;;;;;;;18.77;6.72;;;4.70;99.90;;;;;;5111216;28;20138;-52
2022/01/31 01:39:32;;;;;;;21.48;7.22;;;3.60;99.90;;;;;;5110481;28;20490;-51
2022/01/31 01:41:58;;;;;;;28.63;7.93;;;3.00;99.90;;;;;;5092507;28;20039;-52
2022/01/31 01:44:40;;;;;;;26.13;9.00;;;2.90;99.90;;;;;;5092760;28;20076;-51
2022/01/31 01:47:06;;;;;;;22.67;7.93;;;2.80;99.90;;;;;;5111267;28;20055;-49
2022/01/31 01:49:32;;;;;;;30.58;9.90;;;2.90;99.90;;;;;;5092343;28;20051;-49
2022/01/31 01:51:57;;;;;;;22.27;8.10;;;2.70;99.90;;;;;;5110903;28;20082;-51
2022/01/31 01:54:23;;;;;;;23.90;10.15;;;2.70;99.90;;;;;;5110488;28;20040;-48
2022/01/31 01:56:49;;;;;;;32.88;11.32;;;2.70;99.90;;;;;;5110890;28;20400;-50
2022/01/31 01:59:14;;;;;;;25.60;10.73;;;2.60;99.90;;;;;;5110692;28;20046;-52
2022/01/31 02:01:40;;;;;;;33.22;11.23;;;2.60;99.90;;;;;;5110467;28;20084;-47
2022/01/31 02:04:06;;;;;;;28.20;11.65;;;2.50;99.90;;;;;;5110623;28;20122;-49
2022/01/31 02:06:32;;;;;;;35.83;13.43;;;2.30;99.90;;;;;;5110718;28;20051;-47
2022/01/31 02:08:59;;;;;;;34.08;13.75;;;2.50;99.90;;;;;;5110874;28;20089;-50
2022/01/31 02:11:24;;;;;;;29.83;13.77;;;2.40;99.90;;;;;;5110845;28;20374;-48
2022/01/31 02:13:50;;;;;;;22.30;10.43;;;2.30;99.90;;;;;;5110694;28;20042;-48
2022/01/31 02:16:17;;;;;;;32.28;14.45;;;2.30;99.90;;;;;;5110466;28;20074;-51
2022/01/31 02:18:52;;;;;;;34.35;14.82;;;2.30;99.90;;;;;;5110328;28;20044;-47
2022/01/31 02:21:18;;;;;;;34.92;14.55;;;2.30;99.90;;;;;;5110802;28;20081;-51
2022/01/31 02:23:44;;;;;;;39.58;15.63;;;2.20;99.90;;;;;;5110583;28;20147;-50
2022/01/31 02:26:10;;;;;;;30.48;15.32;;;3.80;99.90;;;;;;5110976;28;20043;-47
2022/01/31 02:28:39;;;;;;;32.90;14.05;;;2.20;99.90;;;;;;5110496;28;20050;-50
2022/01/31 02:31:05;;;;;;;29.48;15.73;;;2.20;99.90;;;;;;5110653;28;20043;-49
2022/01/31 02:33:31;;;;;;;35.08;16.45;;;2.10;99.90;;;;;;5109990;28;20401;-47
2022/01/31 02:36:03;;;;;;;40.78;15.00;;;2.10;99.90;;;;;;5110867;28;20052;-48
2022/01/31 02:38:30;;;;;;;33.60;15.90;;;2.10;99.90;;;;;;5091187;28;20047;-50
2022/01/31 02:40:56;;;;;;;39.92;16.85;;;2.20;99.90;;;;;;5110455;28;20044;-50
2022/01/31 02:43:27;;;;;;;32.35;16.35;;;2.10;99.90;;;;;;5110697;28;20040;-49
2022/01/31 02:45:53;;;;;;;36.13;17.48;;;2.10;99.90;;;;;;5110472;28;20039;-48
2022/01/31 02:48:22;;;;;;;32.70;17.63;;;2.10;99.90;;;;;;5110332;28;20039;-47
2022/01/31 02:50:48;;;;;;;36.42;18.75;;;2.10;99.90;;;;;;5110190;28;20389;-49
2022/01/31 02:53:24;;;;;;;39.35;18.42;;;2.10;99.90;;;;;;5109788;28;20557;-47
2022/01/31 02:55:51;;;;;;;48.22;18.77;;;2.10;99.90;;;;;;5110236;28;20095;-49
2022/01/31 02:58:18;;;;;;;36.60;18.70;;;2.10;99.90;;;;;;5109973;28;20043;-48
2022/01/31 03:00:44;;;;;;;31.92;17.15;;;2.10;99.90;;;;;;5109444;28;20043;-50
2022/01/31 03:03:10;;;;;;;30.50;15.75;;;2.10;99.90;;;;;;5109955;28;20044;-47
2022/01/31 03:05:36;;;;;;;38.80;16.88;;;2.20;99.90;;;;;;5109421;28;20151;-50
2022/01/31 03:08:02;;;;;;;31.17;16.83;;;2.20;99.90;;;;;;5109922;28;20484;-47
2022/01/31 03:10:28;;;;;;;29.05;17.40;;;2.20;99.90;;;;;;5110167;28;20401;-47
2022/01/31 03:12:54;;;;;;;31.38;15.05;;;2.20;99.90;;;;;;5110277;28;20047;-50
2022/01/31 03:15:20;;;;;;;29.60;14.52;;;2.30;99.90;;;;;;5110378;28;20069;-48
2022/01/31 03:17:48;;;;;;;31.45;14.07;;;2.20;99.90;;;;;;5109673;28;20062;-51
2022/01/31 03:20:16;;;;;;;20.27;10.52;;;2.30;99.90;;;;;;5109829;28;20047;-47
2022/01/31 03:22:42;;;;;;;24.63;13.65;;;2.30;99.90;;;;;;5110191;28;20043;-51
2022/01/31 03:25:08;;;;;;;25.52;13.48;;;2.30;99.90;;;;;;5109912;28;20086;-47
2022/01/31 03:27:34;;;;;;;20.17;11.10;;;2.30;99.90;;;;;;5109674;28;20533;-48
2022/01/31 03:30:00;;;;;;;18.40;12.05;;;2.40;99.90;;;;;;5110171;28;20055;-48
2022/01/31 03:32:26;;;;;;;24.02;12.15;;;2.30;99.90;;;;;;5110043;28;20043;-50
2022/01/31 03:34:51;;;;;;;21.70;11.98;;;2.30;99.90;;;;;;5091097;28;20127;-51
2022/01/31 03:37:17;;;;;;;21.10;12.48;;;3.40;99.90;;;;;;5109891;28;20036;-48
2022/01/31 03:39:43;;;;;;;23.23;12.60;;;2.20;99.90;;;;;;5109982;28;20058;-50
2022/01/31 03:42:09;;;;;;;26.90;12.73;;;2.30;99.90;;;;;;5113621;28;20047;-48
2022/01/31 03:44:35;;;;;;;23.48;12.85;;;2.30;99.90;;;;;;5113492;28;20051;-49
2022/01/31 03:47:00;;;;;;;33.53;13.25;;;2.30;99.90;;;;;;5095392;28;20794;-50
2022/01/31 03:49:26;;;;;;;26.55;13.50;;;2.30;99.90;;;;;;5113493;28;20039;-50
2022/01/31 03:51:52;;;;;;;33.30;15.80;;;2.30;99.90;;;;;;5112935;28;20574;-51
2022/01/31 03:54:18;;;;;;;30.88;15.10;;;2.40;99.90;;;;;;5113273;28;20089;-51
2022/01/31 03:56:43;;;;;;;33.33;16.20;;;2.40;99.90;;;;;;5112984;28;20115;-50
2022/01/31 03:59:09;;;;;;;31.38;14.65;;;2.40;99.90;;;;;;5113345;28;20122;-50
2022/01/31 04:01:35;;;;;;;32.42;13.43;;;2.40;99.90;;;;;;5094697;28;20084;-47
2022/01/31 04:04:01;;;;;;;25.80;11.65;;;2.40;99.90;;;;;;5113440;28;20434;-48
2022/01/31 04:06:26;;;;;;;25.52;12.32;;;2.50;99.90;;;;;;5113284;28;20476;-49
2022/01/31 04:08:52;;;;;;;26.33;11.15;;;2.60;99.90;;;;;;5112822;28;20043;-49
2022/01/31 04:11:18;;;;;;;26.90;11.25;;;2.70;99.90;;;;;;5113062;28;20047;-51
2022/01/31 04:13:44;;;;;;;29.92;10.27;;;2.80;99.90;;;;;;5113090;28;20063;-47
2022/01/31 04:16:10;;;;;;;21.83;9.75;;;3.60;99.90;;;;;;5113216;28;20140;-47
2022/01/31 04:18:35;;;;;;;24.65;9.57;;;3.10;99.90;;;;;;5113074;28;20385;-50
2022/01/31 04:21:01;;;;;;;28.48;9.65;;;3.20;99.90;;;;;;5113055;28;20560;-49
2022/01/31 04:23:29;;;;;;;25.80;8.68;;;3.20;99.90;;;;;;5113099;28;20131;-51
2022/01/31 04:26:02;;;;;;;25.23;7.65;;;3.30;99.90;;;;;;5112705;28;20043;-47
2022/01/31 04:28:38;;;;;;;22.95;4.70;;;3.50;99.90;;;;;;5112519;28;20176;-46
2022/01/31 04:33:49;;;;;;;30.55;6.50;;;4.80;99.90;;;;;;5112404;28;20067;-48
2022/01/31 04:36:16;;;;;;;26.60;4.57;;;3.90;99.90;;;;;;5094022;28;20101;-49
2022/01/31 04:38:46;;;;;;;27.13;3.75;;;4.00;99.90;;;;;;5111865;28;20494;-49
2022/01/31 04:41:12;;;;;;;31.67;4.60;;;4.00;99.90;;;;;;5112279;28;20048;-49
2022/01/31 04:43:39;;;;;;;27.63;3.95;;;4.00;99.90;;;;;;5112462;28;20067;-49
2022/01/31 04:46:07;;;;;;;23.98;2.83;;;4.20;99.90;;;;;;5112241;28;20050;-48
2022/01/31 04:48:33;;;;;;;28.00;2.38;;;4.20;99.90;;;;;;5112177;28;20134;-47
2022/01/31 04:50:59;;;;;;;17.85;3.30;;;4.30;99.90;;;;;;5111287;28;20107;-49
2022/01/31 04:53:25;;;;;;;13.95;1.40;;;4.30;99.90;;;;;;5112007;28;20119;-49
2022/01/31 04:55:51;;;;;;;21.80;2.70;;;4.10;99.90;;;;;;5111854;28;20039;-46
2022/01/31 04:58:18;;;;;;;9.25;0.88;;;4.20;99.90;;;;;;5093724;28;20168;-51
2022/01/31 05:00:44;;;;;;;16.23;1.50;;;4.10;99.90;;;;;;5093412;28;20035;-50
2022/01/31 05:03:15;;;;;;;15.02;1.83;;;4.00;99.90;;;;;;5093735;28;20495;-50
2022/01/31 05:05:42;;;;;;;21.02;2.15;;;4.00;99.90;;;;;;5112001;28;20127;-50
2022/01/31 05:08:08;;;;;;;21.90;2.47;;;3.90;99.90;;;;;;5111889;28;20040;-47
2022/01/31 05:10:34;;;;;;;19.38;2.25;;;3.70;99.90;;;;;;5093229;28;20054;-47
2022/01/31 05:13:01;;;;;;;28.10;2.30;;;3.60;99.90;;;;;;5093540;28;20048;-50
2022/01/31 05:15:27;;;;;;;25.73;2.58;;;3.60;99.90;;;;;;5112036;28;20035;-48
2022/01/31 05:17:53;;;;;;;22.10;2.10;;;3.60;99.90;;;;;;5111993;28;20050;-47
2022/01/31 05:20:19;;;;;;;20.98;1.85;;;3.60;99.90;;;;;;5111883;28;20110;-47
2022/01/31 05:22:45;;;;;;;17.85;2.35;;;3.70;99.90;;;;;;5111718;28;20043;-47
2022/01/31 05:25:11;;;;;;;19.38;2.97;;;3.70;99.90;;;;;;5111290;28;20435;-49
2022/01/31 05:27:36;;;;;;;27.05;2.83;;;3.70;99.90;;;;;;5093222;28;20397;-47
2022/01/31 05:30:04;;;;;;;24.88;2.42;;;3.70;99.90;;;;;;5110818;28;20055;-48
2022/01/31 05:32:30;;;;;;;29.60;2.08;;;3.70;99.90;;;;;;5111029;28;20035;-50
2022/01/31 05:34:56;;;;;;;41.53;5.40;;;3.70;99.90;;;;;;5111391;28;20144;-50
2022/01/31 05:37:22;;;;;;;18.63;3.22;;;3.80;99.90;;;;;;5111499;28;20424;-48
2022/01/31 05:39:47;;;;;;;14.70;2.25;;;3.90;99.90;;;;;;5110984;28;20047;-48
2022/01/31 05:42:13;;;;;;;14.80;1.58;;;4.00;99.90;;;;;;5111208;28;20075;-50
2022/01/31 05:44:39;;;;;;;14.73;1.20;;;4.00;99.90;;;;;;5110956;28;20082;-47
2022/01/31 05:47:05;;;;;;;19.13;1.33;;;4.00;99.90;;;;;;5111134;28;20058;-47
2022/01/31 05:49:32;;;;;;;12.27;1.00;;;4.00;99.90;;;;;;5093082;28;20039;-49
2022/01/31 05:52:07;;;;;;;10.07;0.73;;;3.90;99.90;;;;;;5110621;28;20089;-49
2022/01/31 05:54:35;;;;;;;10.23;0.70;;;3.80;99.90;;;;;;5111331;28;20085;-48
2022/01/31 05:57:01;;;;;;;11.05;0.80;;;4.80;99.90;;;;;;5110907;28;20470;-49
2022/01/31 05:59:27;;;;;;;6.85;0.52;;;3.80;99.90;;;;;;5111050;28;20385;-49
2022/01/31 06:01:53;;;;;;;8.85;0.50;;;3.80;99.90;;;;;;5110736;28;20039;-49
2022/01/31 06:04:19;;;;;;;9.00;1.30;;;3.70;99.90;;;;;;5110718;28;20054;-50
2022/01/31 06:06:45;;;;;;;9.23;0.68;;;3.70;99.90;;;;;;5110575;28;20047;-47
2022/01/31 06:09:10;;;;;;;9.52;1.10;;;3.60;99.90;;;;;;5110630;28;20084;-48
2022/01/31 06:11:36;;;;;;;7.75;1.60;;;3.60;99.90;;;;;;5110850;28;20101;-47
2022/01/31 06:14:06;;;;;;;10.00;0.30;;;3.60;99.90;;;;;;5110266;28;20127;-50
2022/01/31 06:16:32;;;;;;;10.93;0.55;;;3.70;99.90;;;;;;5111081;28;20044;-46
2022/01/31 06:19:00;;;;;;;9.02;2.10;;;3.70;99.90;;;;;;5110551;28;20502;-49
2022/01/31 06:21:26;;;;;;;7.95;1.15;;;3.70;99.90;;;;;;5110677;28;20031;-50
2022/01/31 06:23:52;;;;;;;13.80;1.52;;;3.70;99.90;;;;;;5110462;28;20553;-51
2022/01/31 06:26:19;;;;;;;5.53;0.38;;;3.60;99.90;;;;;;5110454;28;20040;-47
2022/01/31 06:28:45;;;;;;;9.90;0.65;;;3.60;99.90;;;;;;5110874;28;20043;-49
2022/01/31 06:31:11;;;;;;;9.07;0.73;;;3.60;99.90;;;;;;5110279;28;20100;-49
2022/01/31 06:33:37;;;;;;;14.82;0.70;;;3.70;99.90;;;;;;5110370;28;20066;-48
2022/01/31 06:36:03;;;;;;;11.63;0.90;;;3.70;99.90;;;;;;5110351;28;20055;-50
2022/01/31 06:38:29;;;;;;;9.98;0.77;;;3.70;99.90;;;;;;5109699;28;20043;-48
2022/01/31 06:40:54;;;;;;;13.98;0.80;;;3.70;99.90;;;;;;5110403;28;20793;-47
2022/01/31 06:43:20;;;;;;;16.88;0.98;;;3.70;99.90;;;;;;5110455;28;20044;-47
2022/01/31 06:45:47;;;;;;;11.93;0.73;;;3.70;99.90;;;;;;5091979;28;20054;-47
2022/01/31 06:48:12;;;;;;;7.82;0.90;;;3.80;99.90;;;;;;5110296;28;20039;-48
2022/01/31 06:50:38;;;;;;;10.10;0.65;;;3.80;99.90;;;;;;5110789;28;20043;-51
2022/01/31 06:53:05;;;;;;;15.23;0.77;;;3.80;99.90;;;;;;5109961;28;20159;-47
2022/01/31 06:55:34;;;;;;;8.43;1.35;;;3.90;99.90;;;;;;5110265;28;20075;-48
2022/01/31 06:58:00;;;;;;;22.50;1.00;;;3.80;99.90;;;;;;5110148;28;20047;-49
2022/01/31 07:00:26;;;;;;;12.57;1.05;;;3.60;99.90;;;;;;5109784;28;20112;-51
2022/01/31 07:02:51;;;;;;;13.55;1.13;;;3.70;99.90;;;;;;5110323;28;20047;-49
2022/01/31 07:05:18;;;;;;;13.93;1.50;;;3.80;99.90;;;;;;5110248;28;20503;-48
2022/01/31 07:07:44;;;;;;;8.43;0.85;;;3.80;99.90;;;;;;5110555;28;20040;-50
2022/01/31 07:10:11;;;;;;;13.75;1.25;;;3.80;99.90;;;;;;5110049;28;20085;-48
2022/01/31 07:12:40;;;;;;;10.25;0.60;;;3.80;99.90;;;;;;5109909;28;20036;-50
2022/01/31 07:15:10;;;;;;;12.63;0.77;;;3.80;99.90;;;;;;5111294;28;20035;-49
2022/01/31 07:17:37;;;;;;;14.63;0.98;;;4.20;99.90;;;;;;5113809;28;20051;-50
2022/01/31 07:20:12;;;;;;;8.75;0.63;;;3.80;99.90;;;;;;5114080;28;20028;-47
2022/01/31 07:22:39;;;;;;;10.70;0.70;;;3.90;99.90;;;;;;5114023;28;20040;-48
2022/01/31 07:25:10;;;;;;;10.32;1.17;;;3.90;99.90;;;;;;5113945;28;20047;-49
2022/01/31 07:27:36;;;;;;;8.02;0.50;;;3.90;99.90;;;;;;5113616;28;20044;-48
2022/01/31 07:30:08;;;;;;;13.27;1.63;;;4.00;99.90;;;;;;5114086;28;20151;-51
2022/01/31 07:32:40;;;;;;;8.97;0.80;;;3.90;99.90;;;;;;5078159;28;20059;-50
2022/01/31 07:35:06;;;;;;;10.80;1.02;;;3.90;99.90;;;;;;5114217;28;20059;-50
2022/01/31 07:37:33;;;;;;;14.80;0.57;;;4.00;99.90;;;;;;5113507;28;20071;-46
2022/01/31 07:39:59;;;;;;;10.55;0.50;;;4.00;99.90;;;;;;5113227;28;20471;-51
2022/01/31 07:42:25;;;;;;;13.95;1.05;;;4.30;99.90;;;;;;5113436;28;20061;-48
2022/01/31 07:44:53;;;;;;;15.95;1.30;;;4.00;99.90;;;;;;5114005;28;20514;-50
2022/01/31 07:47:18;;;;;;;11.70;1.45;;;4.00;99.90;;;;;;5113479;28;20047;-48
2022/01/31 07:49:44;;;;;;;15.30;1.45;;;4.00;99.90;;;;;;5113329;28;20047;-48
2022/01/31 07:52:10;;;;;;;21.45;1.70;;;4.00;99.90;;;;;;5113221;28;20040;-51
2022/01/31 07:54:36;;;;;;;16.40;1.80;;;4.10;99.90;;;;;;5095002;28;20093;-47
2022/01/31 07:57:02;;;;;;;19.23;2.15;;;4.00;99.90;;;;;;5113167;28;20255;-51
2022/01/31 07:59:27;;;;;;;13.57;0.85;;;4.10;99.90;;;;;;5094976;28;20123;-48
2022/01/31 08:01:53;;;;;;;14.98;0.60;;;4.10;99.90;;;;;;5077964;28;20131;-47
2022/01/31 08:04:19;;;;;;;9.32;1.60;;;4.20;99.90;;;;;;5094665;28;20038;-51
2022/01/31 08:06:44;;;;;;;14.32;1.83;;;4.30;99.90;;;;;;5113383;28;20496;-47
2022/01/31 08:09:10;;;;;;;14.73;0.70;;;5.10;99.90;;;;;;5113298;28;20043;-50
2022/01/31 08:11:36;;;;;;;17.05;1.42;;;4.30;99.90;;;;;;5094395;28;20069;-50
2022/01/31 08:14:07;;;;;;;18.00;1.10;;;4.30;99.90;;;;;;5113295;28;20795;-51
2022/01/31 08:16:33;;;;;;;18.95;1.15;;;4.70;99.90;;;;;;5095010;28;20044;-51
2022/01/31 08:18:59;;;;;;;13.90;1.13;;;4.40;99.90;;;;;;5095057;28;20436;-49
2022/01/31 08:21:25;;;;;;;13.23;0.85;;;4.40;99.90;;;;;;5113012;28;20109;-51
2022/01/31 08:23:52;;;;;;;8.75;0.82;;;4.40;99.90;;;;;;5113365;28;20040;-50
2022/01/31 08:26:19;;;;;;;14.30;0.70;;;4.40;99.90;;;;;;5093978;28;20078;-52
2022/01/31 08:31:25;;;;;;;12.68;1.10;;;4.40;99.90;;;;;;5094151;28;20119;-49
2022/01/31 08:34:06;;;;;;;11.30;0.65;;;4.30;99.90;;;;;;5112111;28;20063;-52
2022/01/31 08:36:36;;;;;;;14.98;1.00;;;4.20;99.90;;;;;;5112297;28;20039;-51
2022/01/31 08:39:10;;;;;;;12.18;0.68;;;5.50;99.90;;;;;;5112364;28;20048;-48
2022/01/31 08:41:37;;;;;;;12.55;0.70;;;4.30;99.90;;;;;;5111796;28;20711;-49
2022/01/31 08:44:04;;;;;;;10.88;0.45;;;4.30;99.90;;;;;;5112230;28;20098;-52
2022/01/31 08:46:30;;;;;;;8.20;0.60;;;4.30;99.90;;;;;;5111994;28;20465;-51
2022/01/31 08:48:58;;;;;;;9.07;0.60;;;4.50;99.90;;;;;;5112515;28;20043;-51
2022/01/31 08:51:23;;;;;;;10.13;1.38;;;4.60;99.90;;;;;;5111869;28;20083;-50
2022/01/31 08:53:49;;;;;;;9.55;0.80;;;4.70;99.90;;;;;;5111937;28;20067;-52
2022/01/31 08:56:15;;;;;;;7.15;0.60;;;5.80;99.90;;;;;;5093422;28;20081;-51
2022/01/31 08:58:47;;;;;;;7.00;2.05;;;4.80;99.90;;;;;;5111656;28;20047;-52
2022/01/31 09:01:18;;;;;;;10.30;1.20;;;4.70;99.90;;;;;;5093865;28;20401;-50
2022/01/31 09:06:19;;;;;;;10.38;1.50;;;5.00;99.90;;;;;;5111906;28;20370;-50
2022/01/31 09:08:45;;;;;;;13.05;0.95;;;5.00;99.90;;;;;;5111598;28;20039;-49
2022/01/31 09:11:11;;;;;;;11.88;0.70;;;5.10;99.90;;;;;;5093764;28;20382;-50
2022/01/31 09:13:38;;;;;;;20.55;1.52;;;5.60;99.90;;;;;;5111510;28;20496;-51
2022/01/31 09:16:05;;;;;;;14.93;1.38;;;5.40;99.90;;;;;;5112102;28;20395;-47
2022/01/31 09:18:31;;;;;;;9.38;1.17;;;5.40;99.90;;;;;;5111251;28;20047;-49
2022/01/31 09:20:58;;;;;;;12.00;0.90;;;5.40;99.90;;;;;;5111429;28;20492;-49
2022/01/31 09:23:28;;;;;;;18.92;1.20;;;5.50;99.90;;;;;;5111649;28;20074;-50
2022/01/31 09:25:55;;;;;;;15.52;1.00;;;5.50;99.90;;;;;;5111417;28;20043;-51
2022/01/31 09:28:21;;;;;;;20.63;1.55;;;5.40;99.90;;;;;;5092986;28;20043;-48
2022/01/31 09:30:47;;;;;;;11.70;1.42;;;6.10;99.90;;;;;;5110969;28;20401;-47
2022/01/31 09:33:15;;;;;;;13.95;1.77;;;5.80;99.90;;;;;;5111018;28;20047;-50
2022/01/31 09:35:42;;;;;;;14.98;0.90;;;6.00;99.90;;;;;;5111516;28;20066;-50
2022/01/31 09:38:11;;;;;;;24.65;2.17;;;6.00;99.90;;;;;;5110515;28;20485;-47
2022/01/31 09:40:36;;;;;;;16.20;1.13;;;5.80;99.90;;;;;;5111341;28;20046;-51
2022/01/31 09:43:27;;;;;;;16.40;0.82;;;6.10;99.90;;;;;;5111224;28;20039;-48
2022/01/31 09:48:35;;;;;;;13.20;1.00;;;6.50;99.90;;;;;;5110923;28;20047;-51
2022/01/31 09:51:15;;;;;;;15.75;1.02;;;6.30;99.90;;;;;;5111211;28;20043;-49
2022/01/31 09:53:42;;;;;;;13.27;1.33;;;6.20;99.90;;;;;;5110844;28;20043;-50
2022/01/31 09:56:10;;;;;;;14.68;1.30;;;6.10;99.90;;;;;;5111426;28;20114;-49
2022/01/31 09:58:37;;;;;;;10.02;1.25;;;6.30;99.90;;;;;;5110950;28;20035;-50
2022/01/31 10:01:15;;;;;;;11.18;1.55;;;7.10;99.90;;;;;;5110725;28;20524;-50
2022/01/31 10:03:48;;;;;;;16.17;0.77;;;6.60;99.90;;;;;;5110799;28;20050;-47
2022/01/31 10:06:38;;;;;;;14.20;1.73;;;6.50;99.90;;;;;;5110656;28;20043;-48
2022/01/31 10:09:17;;;;;;;7.03;0.98;;;6.80;99.90;;;;;;5110629;28;20362;-51
2022/01/31 10:11:56;;;;;;;10.05;0.60;;;6.70;99.90;;;;;;5110401;28;20040;-51
2022/01/31 10:17:28;;;;;;;8.75;1.20;;;6.50;99.90;;;;;;5071087;28;20050;-52
2022/01/31 10:20:07;;;;;;;5.13;0.40;;;6.40;99.90;;;;;;5108867;28;20043;-51
2022/01/31 10:22:35;;;;;;;8.45;0.77;;;6.20;99.90;;;;;;5109461;28;20055;-44
2022/01/31 10:25:07;;;;;;;14.82;0.40;;;6.20;99.90;;;;;;5110359;28;20039;-49
2022/01/31 10:27:34;;;;;;;9.25;0.28;;;6.10;99.90;;;;;;5110309;28;20100;-49
2022/01/31 10:30:19;;;;;;;9.60;0.70;;;6.10;99.90;;;;;;5110700;28;20047;-49
2022/01/31 10:32:47;;;;;;;11.18;0.45;;;6.10;99.90;;;;;;5110336;28;20133;-48
2022/01/31 10:35:15;;;;;;;10.90;1.52;;;6.00;99.90;;;;;;5110419;28;20404;-56
2022/01/31 10:37:42;;;;;;;6.93;0.57;;;6.70;99.90;;;;;;5110087;28;20043;-45
2022/01/31 10:54:16;;;;;;;16.80;0.95;;;6.70;99.90;;;;;;5114549;28;20043;-51
2022/01/31 10:56:58;;;;;;;10.25;0.52;;;7.30;99.90;;;;;;5114315;28;20048;-43
2022/01/31 10:59:30;;;;;;;15.50;1.23;;;7.00;99.90;;;;;;5114269;28;20039;-44
2022/01/31 11:01:58;;;;;;;18.60;0.95;;;7.30;99.90;;;;;;5113918;28;20035;-50
2022/01/31 11:04:23;;;;;;;14.43;1.20;;;8.10;99.90;;;;;;5113475;28;20043;-44
2022/01/31 11:06:58;;;;;;;10.85;1.05;;;6.90;99.90;;;;;;5113588;28;20043;-48
2022/01/31 11:09:23;;;;;;;17.15;1.27;;;7.00;99.90;;;;;;5096421;28;20053;-51
2022/01/31 11:11:50;;;;;;;12.75;2.33;;;6.90;99.90;;;;;;5113752;28;20512;-48
2022/01/31 11:14:17;;;;;;;14.55;0.93;;;6.90;99.90;;;;;;5113758;28;20089;-46
2022/01/31 11:16:45;;;;;;;17.73;1.98;;;6.90;99.90;;;;;;5113034;28;20069;-51
2022/01/31 11:19:15;;;;;;;13.65;1.13;;;6.90;99.90;;;;;;5114104;28;20035;-44
2022/01/31 11:21:44;;;;;;;14.75;0.98;;;6.90;99.90;;;;;;5112235;28;20042;-41
2022/01/31 11:24:19;;;;;;;15.73;2.17;;;7.00;99.90;;;;;;5114265;28;20207;-44
2022/01/31 11:27:00;;;;;;;11.48;1.17;;;7.00;99.90;;;;;;5109877;28;20112;-48
2022/01/31 11:29:25;;;;;;;13.15;1.17;;;6.90;99.90;;;;;;5106524;28;20409;-42
2022/01/31 11:31:51;;;;;;;11.07;2.15;;;6.70;99.90;;;;;;5112684;28;20044;-42
2022/01/31 11:34:17;;;;;;;17.90;1.33;;;6.80;99.90;;;;;;5113181;28;20140;-45
2022/01/31 11:36:43;;;;;;;14.25;1.15;;;6.90;99.90;;;;;;5113746;28;20051;-43
2022/01/31 11:39:12;;;;;;;12.57;1.20;;;7.70;99.90;;;;;;5113276;28;20096;-42
2022/01/31 11:41:43;;;;;;;14.70;2.28;;;7.40;99.90;;;;;;5113333;28;20054;-42
2022/01/31 11:44:27;;;;;;;17.80;1.23;;;7.10;99.90;;;;;;5112781;28;20389;-42
2022/01/31 11:46:55;;;;;;;11.65;0.95;;;7.40;99.90;;;;;;5113079;28;20776;-42
2022/01/31 11:49:21;;;;;;;14.40;0.75;;;8.00;99.90;;;;;;5113385;28;20050;-42
2022/01/31 11:52:03;;;;;;;18.25;1.23;;;7.40;99.90;;;;;;5113162;28;20048;-42
2022/01/31 11:54:29;;;;;;;13.43;1.17;;;7.40;99.90;;;;;;5113193;28;20400;-41
2022/01/31 11:56:55;;;;;;;9.73;1.02;;;7.30;99.90;;;;;;5113184;28;20426;-44
2022/01/31 11:59:23;;;;;;;15.02;0.90;;;7.30;99.90;;;;;;5113335;28;20389;-40
2022/01/31 12:01:55;;;;;;;10.23;1.55;;;7.50;99.90;;;;;;5112225;28;20043;-44
2022/01/31 12:04:31;;;;;;;10.80;1.00;;;7.60;99.90;;;;;;5112837;28;20073;-43
2022/01/31 12:06:57;;;;;;;9.55;0.60;;;7.40;99.90;;;;;;5112016;28;20164;-42
2022/01/31 12:09:27;;;;;;;18.70;2.70;;;7.50;99.90;;;;;;5094228;28;20040;-44
2022/01/31 12:12:06;;;;;;;15.45;0.95;;;7.50;99.90;;;;;;5093759;28;20051;-43
2022/01/31 12:14:43;;;;;;;21.80;3.25;;;7.50;99.90;;;;;;5111953;28;20120;-45
2022/01/31 12:18:00;;;;;;;16.55;1.23;;;8.00;99.90;;;;;;5094057;28;20369;-43
2022/01/31 12:21:59;;;;;;;14.68;1.00;;;7.30;99.90;;;;;;5112430;28;20043;-49
2022/01/31 12:23:35;;;;;;;11.45;1.58;;;7.20;99.90;;;;;;5112103;28;20378;-57
2022/01/31 12:26:01;;;;;;;13.25;1.75;;;7.60;99.90;;;;;;5094112;28;20130;-56
2022/01/31 12:28:43;;;;;;;11.88;1.02;;;8.00;99.90;;;;;;5112454;28;20050;-56
2022/01/31 12:31:28;;;;;;;18.50;2.67;;;7.20;99.90;;;;;;5112261;28;20126;-56
2022/01/31 12:33:54;;;;;;;16.20;1.40;;;7.30;99.90;;;;;;5093449;28;20489;-56
2022/01/31 12:36:35;;;;;;;13.48;1.50;;;7.10;99.90;;;;;;5112547;28;20058;-51
2022/01/31 12:39:25;;;;;;;15.52;1.42;;;7.30;99.90;;;;;;5111976;28;20047;-55
2022/01/31 12:42:00;;;;;;;16.80;1.88;;;7.20;99.90;;;;;;5093955;28;20035;-46
2022/01/31 12:44:32;;;;;;;16.17;1.98;;;7.20;99.90;;;;;;5111515;28;20512;-50
2022/01/31 12:47:11;;;;;;;25.75;2.83;;;7.20;99.90;;;;;;5094243;28;20583;-52
2022/01/31 12:49:37;;;;;;;19.00;1.77;;;7.20;99.90;;;;;;5094552;28;20131;-48
2022/01/31 12:52:05;;;;;;;24.25;2.75;;;7.30;99.90;;;;;;5112102;28;20050;-46
2022/01/31 12:54:32;;;;;;;17.08;1.98;;;7.30;99.90;;;;;;5112305;28;20031;-46
2022/01/31 12:57:10;;;;;;;26.70;2.00;;;7.80;99.90;;;;;;5112190;28;20079;-53
2022/01/31 12:59:39;;;;;;;12.05;1.48;;;7.30;99.90;;;;;;5093876;28;20032;-57
2022/01/31 13:02:08;;;;;;;13.35;1.50;;;8.00;99.90;;;;;;5111285;28;20481;-50
2022/01/31 13:04:34;;;;;;;14.88;1.42;;;7.50;99.90;;;;;;5111662;28;20396;-56
2022/01/31 13:07:05;;;;;;;23.20;1.45;;;6.90;99.90;;;;;;5111493;28;20370;-52
2022/01/31 13:09:38;;;;;;;17.08;1.45;;;6.90;99.90;;;;;;5111611;28;20031;-52
2022/01/31 13:12:15;;;;;;;19.23;1.88;;;6.70;99.90;;;;;;5110227;28;20050;-47
2022/01/31 13:14:48;;;;;;;13.38;1.00;;;6.80;99.90;;;;;;5109453;28;20176;-55
2022/01/31 13:17:18;;;;;;;12.90;1.15;;;6.80;99.90;;;;;;5110599;28;20108;-50
2022/01/31 13:19:48;;;;;;;18.80;1.55;;;6.90;99.90;;;;;;5075919;28;20088;-43